Terminal Aerodrome Forecast
Issued by NWS

Current Version | Previous Version | Text Only | Print | Product List | Glossary On
Versions: 1 2 3 4 5 6 7 8 9 10 11 12 13 14 15 16 17 18 19 20 21 22 23
000
FTUS45 KSLC 230119 AAA
TAFEVW
TAF AMD
KEVW 230119Z 2301/2324 26008KT P6SM SCT200
     FM230400 19006KT P6SM SCT200
     FM231700 24015G23KT P6SM SCT120 BKN200=

USA.gov is the U.S. government's official web portal to all federal, state and local government web resources and services.